createdAt,value
2019-05-06T00:00:53.429Z,35.1
2019-05-06T00:00:55.387Z,35.1
2019-05-06T00:00:56.553Z,35.1
2019-05-06T00:01:44.909Z,35.1
2019-05-06T00:02:44.877Z,35.1
2019-05-06T00:03:43.846Z,35.2
2019-05-06T00:04:44.704Z,35.1
2019-05-06T00:05:43.560Z,35.1
2019-05-06T00:06:39.802Z,35.2
2019-05-06T00:07:37.819Z,35.2
2019-05-06T00:08:37.310Z,35.2
2019-05-06T00:09:40.078Z,35.2
2019-05-06T00:10:38.197Z,35.2
2019-05-06T00:11:38.825Z,35.2
2019-05-06T00:12:36.575Z,35.2
2019-05-06T00:13:45.290Z,35.1
2019-05-06T00:14:44.913Z,35.2
2019-05-06T00:15:43.641Z,35.2
2019-05-06T00:16:40.413Z,35.2
2019-05-06T00:17:38.527Z,35.2
2019-05-06T00:18:37.082Z,35.2
2019-05-06T00:19:44.640Z,35.2
2019-05-06T00:20:43.714Z,35.2
2019-05-06T00:21:40.316Z,35.2
2019-05-06T00:22:45.453Z,35.3
2019-05-06T00:23:45.055Z,35.3
2019-05-06T00:24:44.011Z,35.3
2019-05-06T00:25:44.093Z,35.3
2019-05-06T00:26:44.812Z,35.3
2019-05-06T00:27:43.648Z,35.3
2019-05-06T00:28:40.998Z,35
2019-05-06T00:29:43.837Z,35.3
2019-05-06T00:30:47.234Z,35.3
2019-05-06T00:31:45.833Z,35.3
2019-05-06T00:32:44.446Z,35.3
2019-05-06T00:33:49.469Z,35.3
2019-05-06T00:34:51.389Z,35.2
2019-05-06T00:35:48.947Z,35.2
2019-05-06T00:36:54.524Z,35.2
2019-05-06T00:37:53.640Z,35.2
2019-05-06T00:38:57.348Z,35.1
2019-05-06T00:39:55.860Z,35.2
2019-05-06T00:40:54.956Z,35.2
2019-05-06T00:41:55.134Z,35.1
2019-05-06T00:42:54.264Z,35.1
2019-05-06T00:43:50.424Z,34.8
2019-05-06T00:44:54.469Z,35.1
2019-05-06T00:45:53.792Z,35.1
2019-05-06T00:46:54.674Z,35.1
2019-05-06T00:47:57.516Z,35
2019-05-06T00:48:56.368Z,35
2019-05-06T00:49:55.389Z,35
2019-05-06T00:50:53.607Z,35
2019-05-06T00:51:56.292Z,35
2019-05-06T00:52:54.079Z,35
2019-05-06T00:53:51.856Z,35
2019-05-06T00:54:54.901Z,35
2019-05-06T00:55:54.219Z,34.9
2019-05-06T00:56:54.085Z,34.9
2019-05-06T00:57:54.295Z,34.9
2019-05-06T00:58:50.087Z,34.8
2019-05-06T00:59:50.181Z,35
2019-05-06T01:00:50.195Z,35
2019-05-06T01:01:49.572Z,34.9
2019-05-06T01:02:54.282Z,34.8
2019-05-06T01:03:50.702Z,34.9
2019-05-06T01:04:49.168Z,34.8
2019-05-06T01:05:46.854Z,34.8
2019-05-06T01:06:46.502Z,34.8
2019-05-06T01:07:44.956Z,34.8
2019-05-06T01:08:48.119Z,34.8
2019-05-06T01:09:47.995Z,34.7
2019-05-06T01:10:50.967Z,34.8
2019-05-06T01:11:49.355Z,34.8
2019-05-06T01:12:46.853Z,34.8
2019-05-06T01:13:44.373Z,34.7
2019-05-06T01:14:43.558Z,34.7
2019-05-06T01:15:45.696Z,34.7
2019-05-06T01:16:47.606Z,34.7
2019-05-06T01:17:46.338Z,34.7
2019-05-06T01:18:48.839Z,34.7
2019-05-06T01:19:51.042Z,34.6
2019-05-06T01:20:55.639Z,34.6
2019-05-06T01:21:54.233Z,34.7
2019-05-06T01:22:54.443Z,34.6
2019-05-06T01:23:54.373Z,34.6
2019-05-06T01:24:50.524Z,34.6
2019-05-06T01:25:54.553Z,34.6
2019-05-06T01:26:56.261Z,34.6
2019-05-06T01:28:04.292Z,34.5
2019-05-06T01:29:06.817Z,34.6
2019-05-06T01:30:06.399Z,34.6
2019-05-06T01:31:06.115Z,34.6
2019-05-06T01:32:03.974Z,34.6
2019-05-06T01:33:03.804Z,34.5
2019-05-06T01:34:00.033Z,34.5
2019-05-06T01:34:59.421Z,34.5
2019-05-06T01:35:57.950Z,34.5
2019-05-06T01:36:57.485Z,34.5
2019-05-06T01:37:56.214Z,34.6
2019-05-06T01:38:54.309Z,34.6
2019-05-06T01:39:57.898Z,34.5
2019-05-06T01:40:55.337Z,34.5
2019-05-06T01:41:54.810Z,34.5
2019-05-06T01:42:57.324Z,34.5
2019-05-06T01:44:04.270Z,34.5
2019-05-06T01:45:01.527Z,34.5
2019-05-06T01:46:05.707Z,34.5
2019-05-06T01:47:04.740Z,34.5
2019-05-06T01:48:04.136Z,34.5
2019-05-06T01:49:04.396Z,34.5
2019-05-06T01:50:04.395Z,34.5
2019-05-06T01:51:00.438Z,34.5
2019-05-06T01:51:57.995Z,34.5
2019-05-06T01:52:58.226Z,34.5
2019-05-06T01:53:55.949Z,34.5
2019-05-06T01:54:56.400Z,34.5
2019-05-06T01:55:54.632Z,34.5
2019-05-06T01:56:55.144Z,34.5
2019-05-06T01:57:55.112Z,34.5
2019-05-06T01:58:53.573Z,34.5
2019-05-06T01:59:53.982Z,34.5
2019-05-06T02:00:50.652Z,34.5
2019-05-06T02:01:59.940Z,34.4
2019-05-06T02:02:00.496Z,34.4
2019-05-06T02:02:01.214Z,34.4
2019-05-06T02:02:51.221Z,34.5
2019-05-06T02:03:55.190Z,34.4
2019-05-06T02:05:04.805Z,34.4
2019-05-06T02:06:04.732Z,34.4
2019-05-06T02:07:04.955Z,34.4
2019-05-06T02:08:05.290Z,34.4
2019-05-06T02:09:04.569Z,34.4
2019-05-06T02:10:04.063Z,34.3
2019-05-06T02:11:04.081Z,34.3
2019-05-06T02:12:05.508Z,34.3
2019-05-06T02:13:03.910Z,34.3
2019-05-06T02:14:01.131Z,34.3
2019-05-06T02:15:00.590Z,34.3
2019-05-06T02:16:01.074Z,34.3
2019-05-06T02:16:59.078Z,34.3
2019-05-06T02:18:04.073Z,34.3
2019-05-06T02:19:04.013Z,34.3
2019-05-06T02:20:04.056Z,34.3
2019-05-06T02:20:59.698Z,34.3
2019-05-06T02:21:59.386Z,34.3
2019-05-06T02:23:00.724Z,34.3
2019-05-06T02:24:04.242Z,34.3
2019-05-06T02:25:01.753Z,34.3
2019-05-06T02:26:00.257Z,34.3
2019-05-06T02:26:57.593Z,34.3
2019-05-06T02:27:56.566Z,34.3
2019-05-06T02:29:00.723Z,34.3
2019-05-06T02:29:59.987Z,34.3
2019-05-06T02:31:00.487Z,34.3
2019-05-06T02:32:16.011Z,34.3
2019-05-06T02:32:17.429Z,34.3
2019-05-06T02:32:24.408Z,34.3
2019-05-06T02:33:04.447Z,34.3
2019-05-06T02:34:09.218Z,34.3
2019-05-06T02:35:06.882Z,34.3
2019-05-06T02:36:06.640Z,34.3
2019-05-06T02:37:06.333Z,34.3
2019-05-06T02:38:05.059Z,34.3
2019-05-06T02:39:10.014Z,34.3
2019-05-06T02:40:09.217Z,34.3
2019-05-06T02:41:13.301Z,34.3
2019-05-06T02:42:12.818Z,34.3
2019-05-06T02:43:09.923Z,34.3
2019-05-06T02:44:11.001Z,34.3
2019-05-06T02:45:07.694Z,34.3
2019-05-06T02:46:05.358Z,34.3
2019-05-06T02:47:04.541Z,34.3
2019-05-06T02:48:06.238Z,34.3
2019-05-06T02:49:09.165Z,34.3
2019-05-06T02:50:08.840Z,34.3
2019-05-06T02:51:06.468Z,34.3
2019-05-06T02:52:05.295Z,34.2
2019-05-06T02:53:02.976Z,34.2
2019-05-06T02:54:05.599Z,34.2
2019-05-06T02:55:06.376Z,34.2
2019-05-06T02:56:04.025Z,34.2
2019-05-06T02:57:04.177Z,34.2
2019-05-06T02:58:28.208Z,34.2
2019-05-06T02:59:29.140Z,34.3
2019-05-06T03:00:27.531Z,34.3
2019-05-06T03:01:26.240Z,34.2
2019-05-06T03:02:38.648Z,34.2
2019-05-06T03:02:39.810Z,34.2
2019-05-06T03:02:43.064Z,34.2
2019-05-06T03:03:26.812Z,34.2
2019-05-06T03:04:25.957Z,34.2
2019-05-06T03:05:25.295Z,34.2
2019-05-06T03:06:23.757Z,34.2
2019-05-06T03:07:32.624Z,34.2
2019-05-06T03:08:27.737Z,34.1
2019-05-06T03:09:30.789Z,34.1
2019-05-06T03:10:32.918Z,34.1
2019-05-06T03:11:32.989Z,34.1
2019-05-06T03:12:27.928Z,34.1
2019-05-06T03:13:25.260Z,34.2
2019-05-06T03:14:23.712Z,34.2
2019-05-06T03:15:25.424Z,34.1
2019-05-06T03:16:23.880Z,34.1
2019-05-06T03:17:23.460Z,34.1
2019-05-06T03:18:19.511Z,34.1
2019-05-06T03:19:16.892Z,34.1
2019-05-06T03:20:14.625Z,34.1
2019-05-06T03:21:14.041Z,34.1
2019-05-06T03:22:16.245Z,34.1
2019-05-06T03:23:14.387Z,34.1
2019-05-06T03:24:14.568Z,34.1
2019-05-06T03:25:13.328Z,34.1
2019-05-06T03:26:13.433Z,34.1
2019-05-06T03:27:08.434Z,34.1
2019-05-06T03:28:05.809Z,34.1
2019-05-06T03:29:03.272Z,34.1
2019-05-06T03:30:04.067Z,34.1
2019-05-06T03:31:06.923Z,34.1
2019-05-06T03:31:08.273Z,34.1
2019-05-06T03:32:07.078Z,34.1
2019-05-06T03:32:08.092Z,34.1
2019-05-06T03:33:38.410Z,34.1
2019-05-06T03:33:40.055Z,34.1
2019-05-06T03:34:35.416Z,34.1
2019-05-06T03:34:35.821Z,34.1
2019-05-06T03:34:43.064Z,34.1
2019-05-06T03:35:27.279Z,34.1
2019-05-06T03:35:31.192Z,34.1
2019-05-06T03:35:33.709Z,34.1
2019-05-06T03:36:18.784Z,34.1
2019-05-06T03:36:23.937Z,34.1
2019-05-06T03:36:27.079Z,34.1
2019-05-06T03:37:09.018Z,34.1
2019-05-06T03:38:07.210Z,34.1
2019-05-06T03:39:10.026Z,34.1
2019-05-06T03:40:07.899Z,34.1
2019-05-06T03:41:08.189Z,34.1
2019-05-06T03:42:07.385Z,34.1
2019-05-06T03:43:07.145Z,34.1
2019-05-06T03:44:05.854Z,34.1
2019-05-06T03:45:05.918Z,34
2019-05-06T03:46:04.521Z,34
2019-05-06T03:47:05.590Z,34.1
2019-05-06T03:48:05.740Z,34
2019-05-06T03:49:03.635Z,34
2019-05-06T03:50:04.286Z,34
2019-05-06T03:50:58.645Z,34
2019-05-06T03:51:56.981Z,34
2019-05-06T03:52:57.216Z,34
2019-05-06T03:53:56.761Z,34
2019-05-06T03:54:55.308Z,34
2019-05-06T03:55:54.075Z,34
2019-05-06T03:56:53.741Z,33.9
2019-05-06T03:57:54.622Z,34
2019-05-06T03:58:58.234Z,34
2019-05-06T03:59:57.182Z,34
2019-05-06T04:00:55.156Z,34
2019-05-06T04:01:53.540Z,34
2019-05-06T04:02:53.808Z,34
2019-05-06T04:03:57.396Z,34
2019-05-06T04:04:56.467Z,33.9
2019-05-06T04:05:56.022Z,33.9
2019-05-06T04:06:53.714Z,33.9
2019-05-06T04:07:49.217Z,33.9
2019-05-06T04:08:47.518Z,33.9
2019-05-06T04:09:45.127Z,33.9
2019-05-06T04:10:46.293Z,33.9
2019-05-06T04:11:44.518Z,33.9
2019-05-06T04:12:43.567Z,33.9
2019-05-06T04:13:43.573Z,33.9
2019-05-06T04:14:38.703Z,33.9
2019-05-06T04:15:36.770Z,33.9
2019-05-06T04:16:37.324Z,33.9
2019-05-06T04:17:35.541Z,33.9
2019-05-06T04:18:35.837Z,33.9
2019-05-06T04:19:34.485Z,33.9
2019-05-06T04:20:37.056Z,33.9
2019-05-06T04:21:34.661Z,33.9
2019-05-06T04:22:39.521Z,33.9
2019-05-06T04:23:43.500Z,33.9
2019-05-06T04:24:42.945Z,33.9
2019-05-06T04:25:39.792Z,33.9
2019-05-06T04:26:38.270Z,33.9
2019-05-06T04:27:38.504Z,33.9
2019-05-06T04:28:43.508Z,33.9
2019-05-06T04:29:42.847Z,33.9
2019-05-06T04:30:43.518Z,33.9
2019-05-06T04:31:46.384Z,33.9
2019-05-06T04:32:45.659Z,33.9
2019-05-06T04:34:07.217Z,33.9
2019-05-06T04:34:08.424Z,33.9
2019-05-06T04:34:09.935Z,33.9
2019-05-06T04:34:47.055Z,33.9
2019-05-06T04:35:44.679Z,33.9
2019-05-06T04:36:48.735Z,33.9
2019-05-06T04:37:47.628Z,33.9
2019-05-06T04:38:48.188Z,33.9
2019-05-06T04:39:45.757Z,33.9
2019-05-06T04:40:44.121Z,33.9
2019-05-06T04:41:43.325Z,33.9
2019-05-06T04:42:44.474Z,33.9
2019-05-06T04:43:39.222Z,33.9
2019-05-06T04:44:37.230Z,33.9
2019-05-06T04:45:37.136Z,33.9
2019-05-06T04:46:35.168Z,33.9
2019-05-06T04:47:33.062Z,33.9
2019-05-06T04:48:33.217Z,33.9
2019-05-06T04:49:32.941Z,33.9
2019-05-06T04:50:33.126Z,33.9
2019-05-06T04:51:32.807Z,33.9
2019-05-06T04:51:36.822Z,33.9
2019-05-06T04:52:34.250Z,33.9
2019-05-06T04:53:33.704Z,33.9
2019-05-06T04:54:33.685Z,33.9
2019-05-06T04:55:33.815Z,33.9
2019-05-06T04:56:33.293Z,33.9
2019-05-06T04:57:35.294Z,33.9
2019-05-06T04:58:33.835Z,33.9
2019-05-06T04:59:39.842Z,33.9
2019-05-06T05:00:39.308Z,33.9
2019-05-06T05:01:39.534Z,33.9
2019-05-06T05:02:45.882Z,33.9
2019-05-06T05:03:46.259Z,33.9
2019-05-06T05:04:53.051Z,33.9
2019-05-06T05:05:54.071Z,33.9
2019-05-06T05:06:52.423Z,33.9
2019-05-06T05:07:49.637Z,33.9
2019-05-06T05:08:49.715Z,33.9
2019-05-06T05:09:50.220Z,33.9
2019-05-06T05:10:58.116Z,33.9
2019-05-06T05:11:55.287Z,33.9
2019-05-06T05:12:54.145Z,33.9
2019-05-06T05:13:53.149Z,33.9
2019-05-06T05:14:52.054Z,33.8
2019-05-06T05:15:55.311Z,33.8
2019-05-06T05:16:53.717Z,33.9
2019-05-06T05:17:55.575Z,33.9
2019-05-06T05:18:58.786Z,33.9
2019-05-06T05:19:56.123Z,33.9
2019-05-06T05:20:56.773Z,33.9
2019-05-06T05:21:54.315Z,33.9
2019-05-06T05:22:56.590Z,33.9
2019-05-06T05:24:03.519Z,33.8
2019-05-06T05:25:08.371Z,33.8
2019-05-06T05:26:07.222Z,33.8
2019-05-06T05:27:04.916Z,33.8
2019-05-06T05:28:06.386Z,33.8
2019-05-06T05:29:07.466Z,33.8
2019-05-06T05:30:05.462Z,33.8
2019-05-06T05:31:03.260Z,33.9
2019-05-06T05:32:02.195Z,33.8
2019-05-06T05:33:02.596Z,33.8
2019-05-06T05:34:06.681Z,33.8
2019-05-06T05:35:04.728Z,33.8
2019-05-06T05:36:02.593Z,33.9
2019-05-06T05:37:04.397Z,33.8
2019-05-06T05:38:03.284Z,33.8
2019-05-06T05:39:03.290Z,33.9
2019-05-06T05:40:03.810Z,33.8
2019-05-06T05:41:03.077Z,33.9
2019-05-06T05:42:07.467Z,33.9
2019-05-06T05:43:05.468Z,33.8
2019-05-06T05:44:03.073Z,33.8
2019-05-06T05:45:02.741Z,33.8
2019-05-06T05:46:02.888Z,33.9
2019-05-06T05:46:59.581Z,33.9
2019-05-06T05:47:59.668Z,33.9
2019-05-06T05:48:58.633Z,33.9
2019-05-06T05:49:56.949Z,33.9
2019-05-06T05:50:56.998Z,33.8
2019-05-06T05:51:55.094Z,33.8
2019-05-06T05:52:57.162Z,33.8
2019-05-06T05:53:56.446Z,33.8
2019-05-06T05:54:59.417Z,33.8
2019-05-06T05:56:02.542Z,33.8
2019-05-06T05:57:02.362Z,33.8
2019-05-06T05:57:59.186Z,33.9
2019-05-06T05:58:57.414Z,33.8
2019-05-06T05:59:54.686Z,33.9
2019-05-06T06:00:52.545Z,33.9
2019-05-06T06:01:59.535Z,33.8
2019-05-06T06:03:02.749Z,33.9
2019-05-06T06:04:03.395Z,33.8
2019-05-06T06:05:04.118Z,33.8
2019-05-06T06:06:03.279Z,33.8
2019-05-06T06:07:02.722Z,33.8
2019-05-06T06:08:02.655Z,33.9
2019-05-06T06:08:59.594Z,33.8
2019-05-06T06:09:57.746Z,33.9
2019-05-06T06:10:55.744Z,33.8
2019-05-06T06:11:55.893Z,33.8
2019-05-06T06:13:04.117Z,33.9
2019-05-06T06:14:03.965Z,33.8
2019-05-06T06:15:05.342Z,33.9
2019-05-06T06:16:04.901Z,33.9
2019-05-06T06:17:03.733Z,33.9
2019-05-06T06:18:02.968Z,33.9
2019-05-06T06:18:59.266Z,33.9
2019-05-06T06:19:57.754Z,33.9
2019-05-06T06:20:57.221Z,33.9
2019-05-06T06:21:56.342Z,33.8
2019-05-06T06:22:55.553Z,33.8
2019-05-06T06:23:54.185Z,33.5
2019-05-06T06:25:04.104Z,32.8
2019-05-06T06:26:04.037Z,32.6
2019-05-06T06:27:05.974Z,32.7
2019-05-06T06:28:04.249Z,32.9
2019-05-06T06:29:03.251Z,33
2019-05-06T06:30:02.237Z,33.1
2019-05-06T06:31:02.911Z,33.3
2019-05-06T06:31:59.023Z,33.4
2019-05-06T06:32:57.617Z,33.3
2019-05-06T06:34:02.513Z,33.3
2019-05-06T06:35:08.391Z,33.3
2019-05-06T06:35:11.365Z,33.3
2019-05-06T06:35:12.107Z,33.3
2019-05-06T06:35:58.759Z,33.4
2019-05-06T06:36:56.815Z,33.4
2019-05-06T06:37:56.808Z,33.5
2019-05-06T06:38:55.423Z,33.6
2019-05-06T06:39:56.348Z,33.6
2019-05-06T06:41:02.699Z,33.7
2019-05-06T06:41:59.327Z,33.7
2019-05-06T06:42:56.784Z,33.8
2019-05-06T06:43:56.998Z,33.9
2019-05-06T06:44:55.453Z,34
2019-05-06T06:45:55.826Z,33.9
2019-05-06T06:46:54.459Z,33.9
2019-05-06T06:47:55.470Z,33.9
2019-05-06T06:48:54.168Z,33.9
2019-05-06T06:49:53.878Z,33.9
2019-05-06T06:50:52.481Z,33.8
2019-05-06T06:51:50.423Z,33.8
2019-05-06T06:52:52.331Z,33.8
2019-05-06T06:53:53.200Z,33.8
2019-05-06T06:54:52.650Z,33.8
2019-05-06T06:55:48.738Z,33.8
2019-05-06T06:56:46.605Z,33.8
2019-05-06T06:57:44.653Z,33.8
2019-05-06T06:58:44.631Z,33.8
2019-05-06T06:59:48.544Z,33.8
2019-05-06T07:00:49.001Z,33.8
2019-05-06T07:01:49.466Z,33.8
2019-05-06T07:02:48.515Z,33.8
2019-05-06T07:03:46.734Z,33.8
2019-05-06T07:04:43.837Z,33.8
2019-05-06T07:05:42.357Z,33.8
2019-05-06T07:06:38.740Z,33.8
2019-05-06T07:07:43.530Z,33.8
2019-05-06T07:07:46.767Z,33.8
2019-05-06T07:07:47.928Z,33.8
2019-05-06T07:08:37.722Z,33.8
2019-05-06T07:09:36.763Z,33.9
2019-05-06T07:10:45.268Z,33.9
2019-05-06T07:11:46.112Z,33.9
2019-05-06T07:12:46.933Z,33.9
2019-05-06T07:13:52.881Z,33.9
2019-05-06T07:14:52.338Z,34
2019-05-06T07:15:52.555Z,34
2019-05-06T07:16:53.426Z,34
2019-05-06T07:17:52.539Z,34.1
2019-05-06T07:18:52.760Z,34.1
2019-05-06T07:19:52.659Z,34.1
2019-05-06T07:20:52.573Z,34.2
2019-05-06T07:21:53.054Z,34.2
2019-05-06T07:22:53.058Z,34.2
2019-05-06T07:23:52.987Z,34.3
2019-05-06T07:24:52.737Z,34.3
2019-05-06T07:25:48.980Z,34.3
2019-05-06T07:26:47.260Z,34.3
2019-05-06T07:27:46.751Z,34.3
2019-05-06T07:28:48.507Z,34.4
2019-05-06T07:29:52.360Z,34.4
2019-05-06T07:30:49.554Z,34.4
2019-05-06T07:31:56.822Z,34.4
2019-05-06T07:32:57.013Z,34.4
2019-05-06T07:33:57.750Z,34.4
2019-05-06T07:35:02.097Z,34.4
2019-05-06T07:36:02.370Z,34.5
2019-05-06T07:37:03.245Z,34.5
2019-05-06T07:37:57.976Z,34.5
2019-05-06T07:38:55.482Z,34.6
2019-05-06T07:39:54.467Z,34.6
2019-05-06T07:40:53.350Z,34.8
2019-05-06T07:41:53.445Z,34.7
2019-05-06T07:42:50.063Z,34.8
2019-05-06T07:44:02.310Z,34.8
2019-05-06T07:44:59.786Z,35
2019-05-06T07:45:59.566Z,35
2019-05-06T07:47:06.086Z,35.1
2019-05-06T07:48:07.970Z,35.2
2019-05-06T07:49:05.727Z,35.2
2019-05-06T07:50:03.557Z,35.3
2019-05-06T07:51:03.043Z,35.4
2019-05-06T07:51:58.936Z,35.4
2019-05-06T07:53:02.393Z,35.6
2019-05-06T07:54:02.845Z,35.6
2019-05-06T07:55:08.709Z,35.7
2019-05-06T07:56:08.352Z,35.9
2019-05-06T07:57:05.855Z,36
2019-05-06T07:58:06.195Z,36
2019-05-06T07:59:05.225Z,35.7
2019-05-06T08:00:03.669Z,35.9
2019-05-06T08:01:02.733Z,35.9
2019-05-06T08:02:02.339Z,35.9
2019-05-06T08:03:03.304Z,35.9
2019-05-06T08:04:02.536Z,35.9
2019-05-06T08:05:02.567Z,35.8
2019-05-06T08:05:59.063Z,35.8
2019-05-06T08:06:57.261Z,35.8
2019-05-06T08:07:56.180Z,35.8
2019-05-06T08:08:58.151Z,35.8
2019-05-06T08:09:56.218Z,35.8
2019-05-06T08:10:54.117Z,35.8
2019-05-06T08:11:55.042Z,35.9
2019-05-06T08:12:59.509Z,35.9
2019-05-06T08:13:57.212Z,35.9
2019-05-06T08:14:54.602Z,35.8
2019-05-06T08:15:55.154Z,35.8
2019-05-06T08:16:53.247Z,35.8
2019-05-06T08:17:52.412Z,35.8
2019-05-06T08:18:48.544Z,35.8
2019-05-06T08:19:49.786Z,35.8
2019-05-06T08:20:51.973Z,35.8
2019-05-06T08:21:48.703Z,35.8
2019-05-06T08:22:56.110Z,35.7
2019-05-06T08:23:54.255Z,35.7
2019-05-06T08:24:53.360Z,35.7
2019-05-06T08:26:08.324Z,35.7
2019-05-06T08:26:10.009Z,35.7
2019-05-06T08:26:12.027Z,35.7
2019-05-06T08:26:53.424Z,35.7
2019-05-06T08:27:54.152Z,35.7
2019-05-06T08:28:53.702Z,35.8
2019-05-06T08:29:56.610Z,35.8
2019-05-06T08:30:54.404Z,35.7
2019-05-06T08:32:03.816Z,35.7
2019-05-06T08:33:02.315Z,35.7
2019-05-06T08:34:09.081Z,35.7
2019-05-06T08:35:13.342Z,35.6
2019-05-06T08:36:14.143Z,35.7
2019-05-06T08:37:12.204Z,35.7
2019-05-06T08:38:12.005Z,35.7
2019-05-06T08:39:08.311Z,35.6
2019-05-06T08:40:11.822Z,35.7
2019-05-06T08:41:07.540Z,35.7
2019-05-06T08:42:07.974Z,35.6
2019-05-06T08:43:07.581Z,35.6
2019-05-06T08:44:04.994Z,35.7
2019-05-06T08:45:07.195Z,35.6
2019-05-06T08:46:07.244Z,35.6
2019-05-06T08:47:04.703Z,35.6
2019-05-06T08:48:06.283Z,35.6
2019-05-06T08:49:03.830Z,35.6
2019-05-06T08:50:04.071Z,35.6
2019-05-06T08:51:03.273Z,35.6
2019-05-06T08:52:04.677Z,35.6
2019-05-06T08:53:05.236Z,35.5
2019-05-06T08:54:04.127Z,35.6
2019-05-06T08:55:04.803Z,35.6
2019-05-06T08:56:01.936Z,35.6
2019-05-06T08:57:08.821Z,35.5
2019-05-06T08:58:07.885Z,35.6
2019-05-06T08:59:05.783Z,35.7
2019-05-06T09:00:03.684Z,35.6
2019-05-06T09:01:02.832Z,35.6
2019-05-06T09:02:03.176Z,35.6
2019-05-06T09:03:04.306Z,35.6
2019-05-06T09:04:11.464Z,35.6
2019-05-06T09:04:12.202Z,35.6
2019-05-06T09:04:13.717Z,35.6
2019-05-06T09:05:02.882Z,35.6
2019-05-06T09:06:03.954Z,35.6
2019-05-06T09:07:03.132Z,35.6
2019-05-06T09:08:07.149Z,35.6
2019-05-06T09:09:06.723Z,35.6
2019-05-06T09:10:08.719Z,35.6
2019-05-06T09:11:08.455Z,35.6
2019-05-06T09:12:08.107Z,35.6
2019-05-06T09:13:05.860Z,35.6
2019-05-06T09:14:09.607Z,35.5
2019-05-06T09:15:06.329Z,35.5
2019-05-06T09:16:05.975Z,35.5
2019-05-06T09:17:07.165Z,35.5
2019-05-06T09:18:04.490Z,35.5
2019-05-06T09:19:07.963Z,35.5
2019-05-06T09:20:08.536Z,35.5
2019-05-06T09:21:12.282Z,35.5
2019-05-06T09:22:23.470Z,35.5
2019-05-06T09:23:33.104Z,35.5
2019-05-06T09:24:32.078Z,35.5
2019-05-06T09:25:32.261Z,35.5
2019-05-06T09:26:32.396Z,35.5
2019-05-06T09:27:33.583Z,35.5
2019-05-06T09:28:37.652Z,35.5
2019-05-06T09:29:37.871Z,35.5
2019-05-06T09:30:36.517Z,35.5
2019-05-06T09:31:35.858Z,35.5
2019-05-06T09:32:42.930Z,35.5
2019-05-06T09:33:42.506Z,35.5
2019-05-06T09:34:43.174Z,35.5
2019-05-06T09:35:43.648Z,35.5
2019-05-06T09:36:52.636Z,35.5
2019-05-06T09:37:58.008Z,35.5
2019-05-06T09:38:55.455Z,35.5
2019-05-06T09:39:53.750Z,35.5
2019-05-06T09:40:53.831Z,35.5
2019-05-06T09:42:02.301Z,35.5
2019-05-06T09:43:04.774Z,35.5
2019-05-06T09:44:03.106Z,35.3
2019-05-06T09:45:02.050Z,35.5
2019-05-06T09:45:58.252Z,35.5
2019-05-06T09:47:02.376Z,35.5
2019-05-06T09:47:59.117Z,35.5
2019-05-06T09:48:56.611Z,35.5
2019-05-06T09:49:56.917Z,35.5
2019-05-06T09:50:54.595Z,35.5
2019-05-06T09:51:57.755Z,35.5
2019-05-06T09:52:58.289Z,35.5
2019-05-06T09:53:56.112Z,35.5
2019-05-06T09:54:53.787Z,35.5
2019-05-06T09:55:52.681Z,35.5
2019-05-06T09:56:53.397Z,35.5
2019-05-06T09:57:52.256Z,35.5
2019-05-06T09:58:52.768Z,35.5
2019-05-06T09:59:56.708Z,35.5
2019-05-06T10:00:54.821Z,35.5
2019-05-06T10:01:53.977Z,35.6
2019-05-06T10:02:52.807Z,35.5
2019-05-06T10:03:52.925Z,35.5
2019-05-06T10:04:56.365Z,35.5
2019-05-06T10:05:54.779Z,35.5
2019-05-06T10:06:59.668Z,35.5
2019-05-06T10:07:53.814Z,35.5
2019-05-06T10:08:58.999Z,35.5
2019-05-06T10:10:01.948Z,35.6
2019-05-06T10:11:05.131Z,35.5
2019-05-06T10:12:06.102Z,35.6
2019-05-06T10:13:04.994Z,35.6
2019-05-06T10:14:03.917Z,35.2
2019-05-06T10:15:08.300Z,35.6
2019-05-06T10:16:06.802Z,35.5
2019-05-06T10:17:05.363Z,35.5
2019-05-06T10:18:04.468Z,35.5
2019-05-06T10:19:02.579Z,35.5
2019-05-06T10:20:05.029Z,35.5
2019-05-06T10:21:05.739Z,35.5
2019-05-06T10:22:04.218Z,35.5
2019-05-06T10:23:07.065Z,35.5
2019-05-06T10:24:06.634Z,35.5
2019-05-06T10:25:04.505Z,35.6
2019-05-06T10:26:05.357Z,35.5
2019-05-06T10:27:05.610Z,35.6
2019-05-06T10:28:08.250Z,35.6
2019-05-06T10:29:06.523Z,35.2
2019-05-06T10:30:09.038Z,35.6
2019-05-06T10:31:08.953Z,35.6
2019-05-06T10:32:07.220Z,35.5
2019-05-06T10:33:08.611Z,35.6
2019-05-06T10:34:10.106Z,35.4
2019-05-06T10:35:09.684Z,35.5
2019-05-06T10:36:12.892Z,35.5
2019-05-06T10:37:15.345Z,35.5
2019-05-06T10:37:19.015Z,35.5
2019-05-06T10:38:08.992Z,35.5
2019-05-06T10:39:12.695Z,35.4
2019-05-06T10:40:10.265Z,35.5
2019-05-06T10:41:07.944Z,35.5
2019-05-06T10:42:06.774Z,35.5
2019-05-06T10:43:07.404Z,35.4
2019-05-06T10:44:05.770Z,35.2
2019-05-06T10:45:06.075Z,35.2
2019-05-06T10:46:08.085Z,34
2019-05-06T10:47:07.758Z,32.8
2019-05-06T10:48:07.185Z,32.4
2019-05-06T10:49:13.283Z,32.3
2019-05-06T10:50:12.627Z,32.3
2019-05-06T10:51:16.851Z,32.4
2019-05-06T10:52:12.726Z,32.4
2019-05-06T10:53:13.536Z,32.5
2019-05-06T10:54:15.070Z,32.7
2019-05-06T10:55:13.130Z,32.9
2019-05-06T10:56:23.078Z,33
2019-05-06T10:57:22.058Z,33.3
2019-05-06T10:58:22.584Z,33.1
2019-05-06T10:59:21.924Z,33
2019-05-06T11:00:17.388Z,33
2019-05-06T11:01:19.890Z,33.1
2019-05-06T11:02:17.871Z,33.1
2019-05-06T11:03:18.490Z,33.2
2019-05-06T11:04:18.615Z,33.3
2019-05-06T11:05:16.780Z,33.3
2019-05-06T11:06:17.475Z,33.4
2019-05-06T11:07:29.251Z,33.4
2019-05-06T11:07:31.400Z,33.4
2019-05-06T11:07:33.819Z,33.4
2019-05-06T11:08:22.091Z,33.5
2019-05-06T11:09:22.704Z,33.5
2019-05-06T11:10:27.882Z,33.5
2019-05-06T11:10:32.119Z,33.5
2019-05-06T11:10:40.015Z,33.5
2019-05-06T11:11:31.673Z,33.5
2019-05-06T11:11:35.041Z,33.5
2019-05-06T11:11:35.081Z,33.5
2019-05-06T11:12:19.549Z,33.5
2019-05-06T11:13:24.585Z,33.5
2019-05-06T11:14:23.475Z,33.5
2019-05-06T11:15:23.239Z,33.5
2019-05-06T11:16:23.683Z,33.5
2019-05-06T11:17:19.724Z,33.5
2019-05-06T11:18:19.278Z,33.6
2019-05-06T11:19:17.627Z,33.6
2019-05-06T11:20:23.945Z,33.7
2019-05-06T11:21:22.622Z,33.7
2019-05-06T11:22:22.308Z,33.7
2019-05-06T11:23:18.624Z,33.7
2019-05-06T11:24:17.954Z,33.8
2019-05-06T11:25:20.171Z,33.7
2019-05-06T11:26:17.929Z,33.7
2019-05-06T11:27:27.661Z,33.8
2019-05-06T11:27:28.848Z,33.8
2019-05-06T11:27:32.027Z,33.8
2019-05-06T11:28:18.704Z,33.7
2019-05-06T11:29:26.336Z,33.8
2019-05-06T11:30:24.819Z,33.8
2019-05-06T11:31:22.986Z,33.7
2019-05-06T11:32:23.725Z,33.8
2019-05-06T11:33:22.370Z,33.8
2019-05-06T11:34:18.768Z,33.7
2019-05-06T11:35:22.833Z,33.7
2019-05-06T11:36:23.023Z,33.8
2019-05-06T11:37:23.272Z,33.7
2019-05-06T11:38:22.746Z,33.8
2019-05-06T11:39:23.373Z,33.8
2019-05-06T11:40:18.450Z,33.8
2019-05-06T11:41:17.040Z,33.9
2019-05-06T11:42:28.102Z,33.9
2019-05-06T11:42:28.925Z,33.9
2019-05-06T11:42:32.495Z,33.9
2019-05-06T11:43:18.779Z,33.9
2019-05-06T11:44:18.559Z,33.9
2019-05-06T11:45:18.708Z,34
2019-05-06T11:46:16.083Z,34
2019-05-06T11:47:16.279Z,34.1
2019-05-06T11:48:15.365Z,34.3
2019-05-06T11:49:12.866Z,34.4
2019-05-06T11:50:14.527Z,34.5
2019-05-06T11:51:20.301Z,34.6
2019-05-06T11:52:18.883Z,34.8
2019-05-06T11:53:22.952Z,34.9
2019-05-06T11:54:24.585Z,35
2019-05-06T11:55:31.238Z,35.2
2019-05-06T11:55:37.724Z,35.2
2019-05-06T11:55:38.866Z,35.2
2019-05-06T11:56:32.684Z,35.3
2019-05-06T11:56:47.908Z,35.3
2019-05-06T11:56:50.892Z,35.3
2019-05-06T11:57:30.194Z,35.4
2019-05-06T11:58:34.215Z,35.5
2019-05-06T11:59:34.874Z,35.5
2019-05-06T12:00:35.934Z,35.5
2019-05-06T12:01:36.544Z,35.5
2019-05-06T12:02:35.358Z,35.4
2019-05-06T12:03:37.270Z,35.4
2019-05-06T12:04:35.189Z,35.4
2019-05-06T12:05:39.464Z,35.5
2019-05-06T12:06:37.874Z,35.5
2019-05-06T12:07:43.395Z,35.4
2019-05-06T12:08:00.816Z,35.4
2019-05-06T12:08:03.787Z,35.4
2019-05-06T12:08:40.513Z,35.5
2019-05-06T12:09:40.841Z,35.4
2019-05-06T12:10:43.253Z,35.3
2019-05-06T12:11:38.965Z,35.3
2019-05-06T12:12:42.376Z,35.3
2019-05-06T12:13:42.348Z,35.3
2019-05-06T12:14:38.545Z,35.2
2019-05-06T12:15:36.358Z,35.3
2019-05-06T12:16:46.728Z,35.3
2019-05-06T12:17:47.790Z,35.3
2019-05-06T12:18:59.630Z,35.2
2019-05-06T12:20:02.979Z,35.2
2019-05-06T12:21:09.148Z,35.2
2019-05-06T12:21:11.170Z,35.2
2019-05-06T12:21:16.108Z,35.2
2019-05-06T12:21:59.305Z,35.1
2019-05-06T12:22:58.678Z,35.1
2019-05-06T12:23:58.465Z,35.2
2019-05-06T12:25:11.164Z,35.2
2019-05-06T12:25:15.098Z,35.2
2019-05-06T12:26:20.801Z,35.2
2019-05-06T12:27:18.655Z,35.1
2019-05-06T12:28:19.579Z,35.1
2019-05-06T12:29:17.563Z,35.6
2019-05-06T12:30:17.056Z,35.1
2019-05-06T12:31:17.140Z,35
2019-05-06T12:32:22.541Z,35
2019-05-06T12:33:23.630Z,35
2019-05-06T12:34:35.979Z,35
2019-05-06T12:35:42.801Z,35
2019-05-06T12:36:44.136Z,35